createdAt,value
2019-05-14T00:00:47.454Z,22.69
2019-05-14T00:01:47.483Z,22.67
2019-05-14T00:02:47.525Z,22.60
2019-05-14T00:03:47.561Z,22.75
2019-05-14T00:04:47.584Z,22.63
2019-05-14T00:05:47.620Z,22.66
2019-05-14T00:06:47.664Z,22.69
2019-05-14T00:07:47.686Z,22.63
2019-05-14T00:08:47.715Z,22.63
2019-05-14T00:09:47.759Z,22.60
2019-05-14T00:10:47.780Z,22.57
2019-05-14T00:11:47.819Z,22.61
2019-05-14T00:12:47.847Z,22.56
2019-05-14T00:13:47.880Z,22.49
2019-05-14T00:14:47.863Z,22.61
2019-05-14T00:15:47.946Z,22.57
2019-05-14T00:16:47.979Z,22.63
2019-05-14T00:17:48.018Z,22.59
2019-05-14T00:18:48.072Z,22.57
2019-05-14T00:19:48.089Z,22.57
2019-05-14T00:20:48.112Z,22.52
2019-05-14T00:21:48.152Z,22.45
2019-05-14T00:22:48.179Z,22.52
2019-05-14T00:23:48.206Z,22.46
2019-05-14T00:24:48.243Z,22.52
2019-05-14T00:25:48.278Z,22.49
2019-05-14T00:26:48.305Z,22.48
2019-05-14T00:27:48.367Z,22.51
2019-05-14T00:28:48.390Z,22.51
2019-05-14T00:29:48.407Z,22.52
2019-05-14T00:30:48.445Z,22.45
2019-05-14T00:31:48.482Z,22.48
2019-05-14T00:32:48.526Z,22.39
2019-05-14T00:33:48.544Z,22.48
2019-05-14T00:34:48.576Z,22.36
2019-05-14T00:35:48.602Z,22.49
2019-05-14T00:36:48.738Z,22.39
2019-05-14T00:37:48.773Z,22.46
2019-05-14T00:38:48.706Z,22.41
2019-05-14T00:39:48.774Z,22.42
2019-05-14T00:40:51.163Z,22.39
2019-05-14T00:41:51.075Z,22.33
2019-05-14T00:43:51.187Z,22.44
2019-05-14T00:44:57.661Z,22.38
2019-05-14T00:45:50.946Z,22.38
2019-05-14T00:46:48.967Z,22.44
2019-05-14T00:47:48.946Z,22.42
2019-05-14T00:48:51.256Z,22.48
2019-05-14T00:49:51.503Z,22.38
2019-05-14T00:50:51.431Z,22.39
2019-05-14T00:51:49.124Z,22.39
2019-05-14T00:52:51.487Z,22.33
2019-05-14T00:53:51.387Z,22.41
2019-05-14T00:54:49.222Z,22.30
2019-05-14T00:55:51.358Z,22.26
2019-05-14T00:56:49.305Z,22.27
2019-05-14T00:57:51.952Z,22.27
2019-05-14T00:58:49.367Z,22.30
2019-05-14T01:00:49.456Z,22.24
2019-05-14T01:01:51.469Z,22.30
2019-05-14T01:02:51.672Z,22.27
2019-05-14T01:03:51.910Z,22.35
2019-05-14T01:04:51.641Z,22.31
2019-05-14T01:05:51.940Z,22.31
2019-05-14T01:06:51.179Z,22.30
2019-05-14T01:07:51.416Z,22.31
2019-05-14T01:08:51.665Z,22.31
2019-05-14T01:09:52.110Z,22.33
2019-05-14T01:10:51.146Z,22.30
2019-05-14T01:11:51.301Z,22.24
2019-05-14T01:12:51.897Z,22.24
2019-05-14T01:14:52.824Z,22.24
2019-05-14T01:15:51.896Z,22.27
2019-05-14T01:16:51.426Z,22.24
2019-05-14T01:17:51.632Z,22.24
2019-05-14T01:18:51.375Z,22.20
2019-05-14T01:19:51.376Z,22.26
2019-05-14T01:20:51.891Z,22.20
2019-05-14T01:21:51.080Z,22.27
2019-05-14T01:22:51.562Z,22.26
2019-05-14T01:23:51.364Z,22.15
2019-05-14T01:24:52.222Z,22.20
2019-05-14T01:25:51.734Z,22.15
2019-05-14T01:26:52.335Z,22.11
2019-05-14T01:27:51.771Z,22.20
2019-05-14T01:28:51.324Z,22.12
2019-05-14T01:29:51.428Z,22.06
2019-05-14T01:30:51.829Z,22.12
2019-05-14T01:31:52.064Z,22.11
2019-05-14T01:32:51.134Z,22.08
2019-05-14T01:34:52.195Z,22.14
2019-05-14T01:35:51.412Z,22.17
2019-05-14T01:36:52.819Z,22.17
2019-05-14T01:37:52.203Z,22.08
2019-05-14T01:38:51.414Z,22.11
2019-05-14T01:39:51.951Z,22.06
2019-05-14T01:40:52.503Z,22.04
2019-05-14T01:42:52.261Z,22.04
2019-05-14T01:43:51.428Z,22.06
2019-05-14T01:44:52.031Z,22.04
2019-05-14T01:45:52.386Z,22.06
2019-05-14T01:46:51.389Z,22.01
2019-05-14T01:47:52.067Z,22.05
2019-05-14T01:48:52.160Z,22.04
2019-05-14T01:49:51.639Z,22.05
2019-05-14T01:50:52.075Z,22.01
2019-05-14T01:51:51.290Z,22.05
2019-05-14T01:52:52.055Z,22.05
2019-05-14T01:53:52.064Z,22.08
2019-05-14T01:54:51.631Z,22.08
2019-05-14T01:55:51.984Z,22.06
2019-05-14T01:57:51.770Z,22.08
2019-05-14T01:59:51.811Z,22.01
2019-05-14T02:00:52.265Z,22.02
2019-05-14T02:01:51.834Z,21.99
2019-05-14T02:02:52.428Z,22.01
2019-05-14T02:03:51.899Z,22.04
2019-05-14T02:04:51.594Z,21.98
2019-05-14T02:05:52.207Z,21.99
2019-05-14T02:06:51.623Z,21.96
2019-05-14T02:07:52.566Z,21.99
2019-05-14T02:08:51.712Z,21.93
2019-05-14T02:09:51.973Z,21.94
2019-05-14T02:10:52.687Z,21.91
2019-05-14T02:11:51.964Z,21.93
2019-05-14T02:12:51.776Z,21.90
2019-05-14T02:13:52.026Z,21.89
2019-05-14T02:15:52.191Z,21.93
2019-05-14T02:16:51.902Z,21.93
2019-05-14T02:17:51.996Z,21.98
2019-05-14T02:18:52.331Z,21.86
2019-05-14T02:20:52.350Z,21.94
2019-05-14T02:21:52.065Z,21.98
2019-05-14T02:22:52.552Z,21.86
2019-05-14T02:24:52.210Z,21.86
2019-05-14T02:25:52.193Z,21.83
2019-05-14T02:26:52.230Z,21.89
2019-05-14T02:27:52.258Z,21.93
2019-05-14T02:28:52.283Z,21.82
2019-05-14T02:30:58.032Z,21.90
2019-05-14T02:31:52.381Z,21.86
2019-05-14T02:32:52.415Z,21.86
2019-05-14T02:33:52.481Z,21.90
2019-05-14T02:34:52.577Z,21.90
2019-05-14T02:35:52.520Z,21.85
2019-05-14T02:36:52.552Z,21.86
2019-05-14T02:37:52.577Z,21.81
2019-05-14T02:38:52.609Z,21.85
2019-05-14T02:39:52.661Z,21.85
2019-05-14T02:40:52.668Z,21.83
2019-05-14T02:41:52.804Z,21.79
2019-05-14T02:42:52.740Z,21.82
2019-05-14T02:43:52.770Z,21.89
2019-05-14T02:44:52.803Z,21.86
2019-05-14T02:46:05.971Z,21.79
2019-05-14T02:46:52.869Z,21.86
2019-05-14T02:47:52.899Z,21.86
2019-05-14T02:48:52.927Z,21.85
2019-05-14T02:49:52.957Z,21.82
2019-05-14T02:50:53.001Z,21.83
2019-05-14T02:51:53.032Z,21.83
2019-05-14T02:52:53.061Z,21.77
2019-05-14T02:53:53.089Z,21.82
2019-05-14T02:54:53.134Z,21.75
2019-05-14T02:55:53.151Z,21.79
2019-05-14T02:56:53.190Z,21.73
2019-05-14T02:57:53.219Z,21.81
2019-05-14T02:58:53.273Z,21.79
2019-05-14T02:59:53.289Z,21.71
2019-05-14T03:00:53.313Z,21.77
2019-05-14T03:01:53.350Z,21.79
2019-05-14T03:02:53.393Z,21.74
2019-05-14T03:03:53.415Z,21.71
2019-05-14T03:04:53.458Z,21.75
2019-05-14T03:05:53.508Z,21.70
2019-05-14T03:06:53.523Z,21.73
2019-05-14T03:07:53.551Z,21.68
2019-05-14T03:08:53.585Z,21.73
2019-05-14T03:09:53.701Z,21.71
2019-05-14T03:10:53.643Z,21.73
2019-05-14T03:11:53.675Z,21.71
2019-05-14T03:12:53.711Z,21.75
2019-05-14T03:13:53.733Z,21.75
2019-05-14T03:14:53.759Z,21.71
2019-05-14T03:15:53.795Z,21.74
2019-05-14T03:16:53.837Z,21.66
2019-05-14T03:17:53.866Z,21.70
2019-05-14T03:18:53.889Z,21.64
2019-05-14T03:19:53.933Z,21.71
2019-05-14T03:20:54.055Z,21.74
2019-05-14T03:21:54.094Z,21.67
2019-05-14T03:23:54.050Z,21.64
2019-05-14T03:24:54.091Z,21.67
2019-05-14T03:25:54.123Z,21.56
2019-05-14T03:26:54.147Z,21.58
2019-05-14T03:27:54.191Z,21.67
2019-05-14T03:28:54.224Z,21.58
2019-05-14T03:29:54.257Z,21.58
2019-05-14T03:32:54.354Z,21.55
2019-05-14T03:33:54.380Z,21.58
2019-05-14T03:34:54.586Z,21.61
2019-05-14T03:36:01.199Z,21.61
2019-05-14T03:36:54.478Z,21.52
2019-05-14T03:37:54.604Z,21.59
2019-05-14T03:38:54.532Z,21.58
2019-05-14T03:39:54.567Z,21.55
2019-05-14T03:40:54.608Z,21.56
2019-05-14T03:41:54.634Z,21.53
2019-05-14T03:42:54.665Z,21.51
2019-05-14T03:43:54.719Z,21.53
2019-05-14T03:44:54.735Z,21.56
2019-05-14T03:45:54.762Z,21.53
2019-05-14T03:47:54.827Z,21.53
2019-05-14T03:48:54.862Z,21.52
2019-05-14T03:49:54.886Z,21.53
2019-05-14T03:51:55.062Z,21.51
2019-05-14T03:52:54.994Z,21.55
2019-05-14T03:54:05.697Z,21.55
2019-05-14T03:54:55.054Z,21.52
2019-05-14T03:55:55.079Z,21.55
2019-05-14T03:56:55.118Z,21.58
2019-05-14T03:57:55.145Z,21.45
2019-05-14T03:58:55.177Z,21.59
2019-05-14T03:59:55.220Z,21.58
2019-05-14T04:00:55.340Z,21.51
2019-05-14T04:01:55.277Z,21.46
2019-05-14T04:02:55.302Z,21.43
2019-05-14T04:03:55.644Z,21.46
2019-05-14T04:04:55.380Z,21.48
2019-05-14T04:05:55.413Z,21.46
2019-05-14T04:06:55.426Z,21.46
2019-05-14T04:07:55.473Z,21.43
2019-05-14T04:08:55.509Z,21.46
2019-05-14T04:10:58.875Z,21.48
2019-05-14T04:11:55.594Z,21.45
2019-05-14T04:12:55.626Z,21.52
2019-05-14T04:13:55.653Z,21.45
2019-05-14T04:14:55.689Z,21.40
2019-05-14T04:15:55.722Z,21.45
2019-05-14T04:17:08.110Z,21.43
2019-05-14T04:17:55.785Z,21.46
2019-05-14T04:18:59.208Z,21.48
2019-05-14T04:19:55.848Z,21.46
2019-05-14T04:20:58.973Z,21.43
2019-05-14T04:21:55.912Z,21.42
2019-05-14T04:22:55.945Z,21.51
2019-05-14T04:23:59.161Z,21.42
2019-05-14T04:24:56.021Z,21.43
2019-05-14T04:25:56.042Z,21.43
2019-05-14T04:27:03.489Z,21.38
2019-05-14T04:28:56.138Z,21.45
2019-05-14T04:29:58.914Z,21.43
2019-05-14T04:30:59.387Z,21.42
2019-05-14T04:31:56.234Z,21.46
2019-05-14T04:32:59.210Z,21.45
2019-05-14T04:33:59.262Z,21.43
2019-05-14T04:34:59.642Z,21.45
2019-05-14T04:35:59.631Z,21.43
2019-05-14T04:36:59.211Z,21.43
2019-05-14T04:37:58.887Z,21.43
2019-05-14T04:39:00.310Z,21.42
2019-05-14T04:39:59.346Z,21.46
2019-05-14T04:40:59.840Z,21.46
2019-05-14T04:41:59.792Z,21.42
2019-05-14T04:42:59.184Z,21.46
2019-05-14T04:43:59.486Z,21.45
2019-05-14T04:44:59.666Z,21.42
2019-05-14T04:45:59.216Z,21.45
2019-05-14T04:46:59.817Z,21.48
2019-05-14T04:47:59.948Z,21.40
2019-05-14T04:48:59.093Z,21.45
2019-05-14T04:49:59.178Z,21.42
2019-05-14T04:51:00.006Z,21.43
2019-05-14T04:51:59.561Z,21.48
2019-05-14T04:52:59.656Z,21.42
2019-05-14T04:53:59.608Z,21.40
2019-05-14T04:54:59.394Z,21.33
2019-05-14T04:55:59.786Z,21.42
2019-05-14T04:56:59.960Z,21.40
2019-05-14T04:58:59.682Z,21.43
2019-05-14T04:59:59.819Z,21.37
2019-05-14T05:01:00.145Z,21.43
2019-05-14T05:02:00.009Z,21.40
2019-05-14T05:03:00.034Z,21.46
2019-05-14T05:03:59.151Z,21.43
2019-05-14T05:04:59.402Z,21.43
2019-05-14T05:05:58.898Z,21.45
2019-05-14T05:06:59.259Z,21.43
2019-05-14T05:07:59.620Z,21.43
2019-05-14T05:09:00.000Z,21.43
2019-05-14T05:09:59.387Z,21.42
2019-05-14T05:10:59.997Z,21.38
2019-05-14T05:11:59.767Z,21.37
2019-05-14T05:12:58.649Z,21.36
2019-05-14T05:13:59.207Z,21.37
2019-05-14T05:14:58.622Z,21.40
2019-05-14T05:15:59.431Z,21.38
2019-05-14T05:16:59.709Z,21.46
2019-05-14T05:17:58.925Z,21.34
2019-05-14T05:19:59.356Z,21.40
2019-05-14T05:20:58.381Z,21.43
2019-05-14T05:21:58.737Z,21.42
2019-05-14T05:22:59.062Z,21.42
2019-05-14T05:24:59.010Z,21.49
2019-05-14T05:25:58.665Z,21.43
2019-05-14T05:26:58.647Z,21.40
2019-05-14T05:27:59.712Z,21.38
2019-05-14T05:29:03.660Z,21.45
2019-05-14T05:29:58.972Z,21.43
2019-05-14T05:30:58.647Z,21.38
2019-05-14T05:31:59.421Z,21.46
2019-05-14T05:32:59.718Z,21.46
2019-05-14T05:33:58.339Z,21.45
2019-05-14T05:35:59.358Z,21.49
2019-05-14T05:36:59.194Z,21.42
2019-05-14T05:37:58.493Z,21.45
2019-05-14T05:38:59.310Z,21.45
2019-05-14T05:39:58.533Z,21.45
2019-05-14T05:41:00.255Z,21.51
2019-05-14T05:41:58.721Z,21.49
2019-05-14T05:43:58.985Z,21.46
2019-05-14T05:44:58.863Z,21.43
2019-05-14T05:45:59.247Z,21.46
2019-05-14T05:46:59.762Z,21.43
2019-05-14T05:48:01.602Z,21.52
2019-05-14T05:48:58.953Z,21.42
2019-05-14T05:49:58.717Z,21.48
2019-05-14T05:50:59.237Z,21.46
2019-05-14T05:51:59.253Z,21.51
2019-05-14T05:52:58.818Z,21.46
2019-05-14T05:53:59.000Z,21.51
2019-05-14T05:54:58.985Z,21.46
2019-05-14T05:55:59.469Z,21.51
2019-05-14T05:56:58.943Z,21.49
2019-05-14T05:57:58.981Z,21.58
2019-05-14T05:59:00.648Z,21.51
2019-05-14T05:59:59.940Z,21.52
2019-05-14T06:00:59.408Z,21.61
2019-05-14T06:01:59.151Z,21.56
2019-05-14T06:02:59.220Z,21.52
2019-05-14T06:03:59.171Z,21.52
2019-05-14T06:04:59.207Z,21.53
2019-05-14T06:05:59.567Z,21.52
2019-05-14T06:07:02.495Z,21.56
2019-05-14T06:07:59.306Z,21.55
2019-05-14T06:08:59.337Z,21.51
2019-05-14T06:09:59.388Z,21.51
2019-05-14T06:10:59.417Z,21.56
2019-05-14T06:11:59.463Z,21.53
2019-05-14T06:12:59.465Z,21.56
2019-05-14T06:13:59.500Z,21.58
2019-05-14T06:14:59.626Z,21.56
2019-05-14T06:15:59.594Z,21.59
2019-05-14T06:16:59.685Z,21.56
2019-05-14T06:18:14.378Z,21.59
2019-05-14T06:18:59.671Z,21.56
2019-05-14T06:20:59.718Z,21.64
2019-05-14T06:21:59.954Z,21.64
2019-05-14T06:22:59.829Z,21.53
2019-05-14T06:24:02.881Z,21.55
2019-05-14T06:24:59.843Z,21.67
2019-05-14T06:26:00.227Z,21.70
2019-05-14T06:26:59.916Z,21.70
2019-05-14T06:28:00.245Z,21.63
2019-05-14T06:29:00.057Z,21.70
2019-05-14T06:30:00.012Z,21.66
2019-05-14T06:31:00.057Z,21.67
2019-05-14T06:32:00.176Z,21.67
2019-05-14T06:33:00.103Z,21.66
2019-05-14T06:34:00.139Z,21.66
2019-05-14T06:35:00.162Z,21.66
2019-05-14T06:36:00.201Z,21.73
2019-05-14T06:37:00.228Z,21.73
2019-05-14T06:38:00.274Z,21.73
2019-05-14T06:39:00.294Z,21.71
2019-05-14T06:40:00.636Z,21.68
2019-05-14T06:41:00.661Z,21.75
2019-05-14T06:42:00.394Z,21.71
2019-05-14T06:43:00.425Z,21.73
2019-05-14T06:44:00.458Z,21.71
2019-05-14T06:45:00.488Z,21.77
2019-05-14T06:46:00.645Z,21.67
2019-05-14T06:47:00.549Z,21.74
2019-05-14T06:48:00.587Z,21.73
2019-05-14T06:49:00.623Z,21.70
2019-05-14T06:50:00.656Z,21.79
2019-05-14T06:51:00.680Z,21.79
2019-05-14T06:52:00.719Z,21.73
2019-05-14T06:53:00.758Z,21.67
2019-05-14T06:55:00.812Z,21.79
2019-05-14T06:57:00.882Z,21.85
2019-05-14T06:58:00.928Z,21.79
2019-05-14T06:59:00.951Z,21.70
2019-05-14T07:00:01.074Z,21.71
2019-05-14T07:01:01.022Z,21.79
2019-05-14T07:02:01.032Z,21.82
2019-05-14T07:03:01.072Z,21.81
2019-05-14T07:04:01.113Z,21.90
2019-05-14T07:05:01.244Z,21.79
2019-05-14T07:06:01.164Z,21.91
2019-05-14T07:07:01.208Z,21.85
2019-05-14T07:08:01.238Z,21.83
2019-05-14T07:09:01.274Z,21.85
2019-05-14T07:10:01.312Z,21.85
2019-05-14T07:11:01.325Z,21.82
2019-05-14T07:12:01.461Z,21.93
2019-05-14T07:13:01.400Z,21.86
2019-05-14T07:14:01.617Z,21.83
2019-05-14T07:15:01.464Z,21.93
2019-05-14T07:16:01.597Z,21.85
2019-05-14T07:17:01.528Z,21.93
2019-05-14T07:18:01.560Z,21.91
2019-05-14T07:19:01.590Z,21.91
2019-05-14T07:20:01.916Z,21.86
2019-05-14T07:21:01.653Z,21.90
2019-05-14T07:22:01.689Z,22.05
2019-05-14T07:23:01.718Z,21.89
2019-05-14T07:24:01.753Z,21.93
2019-05-14T07:25:01.807Z,21.94
2019-05-14T07:26:01.819Z,21.98
2019-05-14T07:28:01.880Z,21.86
2019-05-14T07:29:01.917Z,21.98
2019-05-14T07:30:02.103Z,21.98
2019-05-14T07:31:01.972Z,21.91
2019-05-14T07:32:02.014Z,22.01
2019-05-14T07:33:02.431Z,21.96
2019-05-14T07:34:02.180Z,22.01
2019-05-14T07:35:02.204Z,22.04
2019-05-14T07:36:02.186Z,22.05
2019-05-14T07:37:02.175Z,22.06
2019-05-14T07:38:02.270Z,22.06
2019-05-14T07:39:02.338Z,22.09
2019-05-14T07:40:02.354Z,21.99
2019-05-14T07:41:02.424Z,21.99
2019-05-14T07:42:02.332Z,22.05
2019-05-14T07:43:02.369Z,22.04
2019-05-14T07:44:02.398Z,22.04
2019-05-14T07:45:02.462Z,22.14
2019-05-14T07:47:02.530Z,22.14
2019-05-14T07:48:02.534Z,22.09
2019-05-14T07:49:07.553Z,22.11
2019-05-14T07:50:02.596Z,22.12
2019-05-14T07:51:02.626Z,22.09
2019-05-14T07:52:02.759Z,22.09
2019-05-14T07:53:03.232Z,22.17
2019-05-14T07:54:02.746Z,22.14
2019-05-14T07:55:02.763Z,22.15
2019-05-14T07:56:02.792Z,22.15
2019-05-14T07:57:02.822Z,22.17
2019-05-14T07:58:02.852Z,22.20
2019-05-14T07:59:02.890Z,22.19
2019-05-14T08:00:02.933Z,22.23
2019-05-14T08:01:02.956Z,22.21
2019-05-14T08:02:02.992Z,22.24
2019-05-14T08:03:03.025Z,22.23
2019-05-14T08:04:03.239Z,22.26
2019-05-14T08:05:03.184Z,22.23
2019-05-14T08:06:03.122Z,22.23
2019-05-14T08:07:03.152Z,22.23
2019-05-14T08:08:03.178Z,22.29
2019-05-14T08:09:03.213Z,22.27
2019-05-14T08:10:03.268Z,22.35
2019-05-14T08:11:03.288Z,22.29
2019-05-14T08:12:03.317Z,22.30
2019-05-14T08:13:03.345Z,22.31
2019-05-14T08:14:03.380Z,22.29
2019-05-14T08:15:15.439Z,22.33
2019-05-14T08:16:03.450Z,22.31
2019-05-14T08:17:03.473Z,22.24
2019-05-14T08:18:03.514Z,22.23
2019-05-14T08:19:05.012Z,22.30
2019-05-14T08:20:03.590Z,22.39
2019-05-14T08:21:03.608Z,22.31
2019-05-14T08:22:03.644Z,22.35
2019-05-14T08:23:03.679Z,22.31
2019-05-14T08:24:03.711Z,22.44
2019-05-14T08:25:03.857Z,22.36
2019-05-14T08:26:04.782Z,22.42
2019-05-14T08:27:03.817Z,22.35
2019-05-14T08:28:03.851Z,22.36
2019-05-14T08:29:03.870Z,22.35
2019-05-14T08:30:03.906Z,22.46
2019-05-14T08:31:03.940Z,22.39
2019-05-14T08:32:03.983Z,22.41
2019-05-14T08:33:04.002Z,22.41
2019-05-14T08:34:05.118Z,22.48
2019-05-14T08:35:04.071Z,22.45
2019-05-14T08:36:04.103Z,22.36
2019-05-14T08:37:05.414Z,22.39
2019-05-14T08:38:08.283Z,22.45
2019-05-14T08:40:04.243Z,22.45
2019-05-14T08:41:05.280Z,22.46
2019-05-14T08:42:04.506Z,22.39
2019-05-14T08:43:04.338Z,22.51
2019-05-14T08:44:04.365Z,22.51
2019-05-14T08:45:04.813Z,22.39
2019-05-14T08:46:04.439Z,22.51
2019-05-14T08:47:04.484Z,22.44
2019-05-14T08:48:04.505Z,22.44
2019-05-14T08:49:05.031Z,22.39
2019-05-14T08:50:04.571Z,22.42
2019-05-14T08:51:04.616Z,22.45
2019-05-14T08:52:04.643Z,22.44
2019-05-14T08:53:04.661Z,22.49
2019-05-14T08:54:04.698Z,22.49
2019-05-14T08:55:10.149Z,22.49
2019-05-14T08:56:04.766Z,22.46
2019-05-14T08:57:04.935Z,22.46
2019-05-14T08:58:04.951Z,22.46
2019-05-14T08:59:04.866Z,22.48
2019-05-14T09:00:04.912Z,22.57
2019-05-14T09:01:04.934Z,22.48
2019-05-14T09:02:06.571Z,22.48
2019-05-14T09:03:04.999Z,22.45
2019-05-14T09:04:05.026Z,22.51
2019-05-14T09:05:05.314Z,22.56
2019-05-14T09:06:05.092Z,22.48
2019-05-14T09:07:05.145Z,22.49
2019-05-14T09:08:05.167Z,22.52
2019-05-14T09:09:05.211Z,22.59
2019-05-14T09:10:05.238Z,22.45
2019-05-14T09:11:05.261Z,22.49
2019-05-14T09:12:05.302Z,22.61
2019-05-14T09:13:05.334Z,22.49
2019-05-14T09:14:05.361Z,22.57
2019-05-14T09:15:05.394Z,22.45
2019-05-14T09:16:05.538Z,22.51
2019-05-14T09:17:05.459Z,22.56
2019-05-14T09:18:05.488Z,22.57
2019-05-14T09:19:05.529Z,22.57
2019-05-14T09:20:07.200Z,22.48
2019-05-14T09:21:05.694Z,22.48
2019-05-14T09:22:05.636Z,22.60
2019-05-14T09:23:05.658Z,22.54
2019-05-14T09:24:05.690Z,22.56
2019-05-14T09:25:08.295Z,22.64
2019-05-14T09:26:05.793Z,22.59
2019-05-14T09:27:08.252Z,22.59
2019-05-14T09:28:05.837Z,22.57
2019-05-14T09:29:18.316Z,22.57
2019-05-14T09:30:05.904Z,22.60
2019-05-14T09:31:08.420Z,22.59
2019-05-14T09:32:05.982Z,22.61
2019-05-14T09:33:08.591Z,22.60
2019-05-14T09:34:06.048Z,22.67
2019-05-14T09:35:06.063Z,22.56
2019-05-14T09:36:17.879Z,22.63
2019-05-14T09:37:08.410Z,22.63
2019-05-14T09:38:08.528Z,22.66
2019-05-14T09:39:06.213Z,22.69
2019-05-14T09:40:08.641Z,22.61
2019-05-14T09:41:12.157Z,22.64
2019-05-14T09:42:08.198Z,22.66
2019-05-14T09:43:09.044Z,22.61
2019-05-14T09:44:06.362Z,22.64
2019-05-14T09:45:10.534Z,22.67
2019-05-14T09:46:08.816Z,22.72
2019-05-14T09:47:08.463Z,22.72
2019-05-14T09:48:08.719Z,22.76
2019-05-14T09:49:08.091Z,22.76
2019-05-14T09:50:16.461Z,22.76
2019-05-14T09:51:09.093Z,22.72
2019-05-14T09:52:08.805Z,22.69
2019-05-14T09:53:09.479Z,22.70
2019-05-14T09:54:08.602Z,22.60
2019-05-14T09:55:09.153Z,22.74
2019-05-14T09:56:08.875Z,22.72
2019-05-14T09:57:08.308Z,22.66
2019-05-14T09:58:08.145Z,22.70
2019-05-14T09:59:09.022Z,22.78
2019-05-14T10:00:08.945Z,22.63
2019-05-14T10:01:08.495Z,22.72
2019-05-14T10:02:09.157Z,22.78
2019-05-14T10:03:09.733Z,22.72
2019-05-14T10:04:09.136Z,22.70
2019-05-14T10:05:09.024Z,22.79
2019-05-14T10:06:09.769Z,22.74
2019-05-14T10:07:08.736Z,22.75
2019-05-14T10:08:08.947Z,22.74
2019-05-14T10:09:08.543Z,22.72
2019-05-14T10:10:07.223Z,22.78
2019-05-14T10:11:07.269Z,22.76
2019-05-14T10:12:09.004Z,22.75
2019-05-14T10:13:09.718Z,22.78
2019-05-14T10:14:07.974Z,22.82
2019-05-14T10:15:08.800Z,22.75
2019-05-14T10:16:09.426Z,22.82
2019-05-14T10:17:07.466Z,22.79
2019-05-14T10:18:11.704Z,22.84
2019-05-14T10:19:07.532Z,22.86
2019-05-14T10:21:08.597Z,22.82
2019-05-14T10:22:08.321Z,22.94
2019-05-14T10:23:09.266Z,22.84
2019-05-14T10:25:09.074Z,22.76
2019-05-14T10:26:09.131Z,22.88
2019-05-14T10:27:09.001Z,22.86
2019-05-14T10:28:08.603Z,22.93
2019-05-14T10:29:08.658Z,22.94
2019-05-14T10:30:09.842Z,22.96
2019-05-14T10:31:09.411Z,22.99
2019-05-14T10:32:08.699Z,22.93
2019-05-14T10:33:14.131Z,22.96
2019-05-14T10:34:08.428Z,22.97
2019-05-14T10:35:08.587Z,23.00
2019-05-14T10:36:09.200Z,23.00
2019-05-14T10:37:08.793Z,22.97
2019-05-14T10:39:09.368Z,23.01
2019-05-14T10:40:10.447Z,23.06
2019-05-14T10:41:08.962Z,22.99
2019-05-14T10:42:09.050Z,23.04
2019-05-14T10:43:09.074Z,22.99
2019-05-14T10:44:09.225Z,23.09
2019-05-14T10:46:09.096Z,23.00
2019-05-14T10:48:09.634Z,23.01
2019-05-14T10:49:19.946Z,23.03
2019-05-14T10:50:13.388Z,22.97
2019-05-14T10:51:09.826Z,23.00
2019-05-14T10:53:09.206Z,23.12
2019-05-14T10:54:21.208Z,23.04
2019-05-14T10:55:08.764Z,23.06
2019-05-14T10:56:09.862Z,23.07
2019-05-14T10:57:09.663Z,23.09
2019-05-14T10:58:09.121Z,23.11
2019-05-14T10:59:09.574Z,23.07
2019-05-14T11:00:09.127Z,23.04
2019-05-14T11:01:11.275Z,23.07
2019-05-14T11:02:12.012Z,23.06
2019-05-14T11:03:09.027Z,23.09
2019-05-14T11:04:09.061Z,23.09
2019-05-14T11:05:09.104Z,23.04
2019-05-14T11:06:11.648Z,23.06
2019-05-14T11:07:09.174Z,23.12
2019-05-14T11:08:11.997Z,23.07
2019-05-14T11:09:09.319Z,23.18
2019-05-14T11:10:09.366Z,23.22
2019-05-14T11:11:10.637Z,23.18
2019-05-14T11:12:09.374Z,23.15
2019-05-14T11:13:09.366Z,23.15
2019-05-14T11:14:09.390Z,23.14
2019-05-14T11:15:09.425Z,23.15
2019-05-14T11:16:09.467Z,23.11
2019-05-14T11:17:11.898Z,23.21
2019-05-14T11:18:09.542Z,23.15
2019-05-14T11:19:09.730Z,23.19
2019-05-14T11:20:09.601Z,23.18
2019-05-14T11:21:24.878Z,23.19
2019-05-14T11:22:09.664Z,23.16
2019-05-14T11:23:09.696Z,23.15
2019-05-14T11:24:09.741Z,23.14
2019-05-14T11:25:09.785Z,23.14
2019-05-14T11:26:09.805Z,23.15
2019-05-14T11:27:09.830Z,23.14
2019-05-14T11:28:09.889Z,23.15
2019-05-14T11:30:09.946Z,23.18
2019-05-14T11:31:09.974Z,23.26
2019-05-14T11:32:10.005Z,23.15
2019-05-14T11:33:10.040Z,23.23
2019-05-14T11:34:10.086Z,23.22
2019-05-14T11:35:12.696Z,23.25
2019-05-14T11:36:10.144Z,23.29
2019-05-14T11:37:10.201Z,23.22
2019-05-14T11:38:27.530Z,23.29
2019-05-14T11:39:10.260Z,23.23
2019-05-14T11:40:10.283Z,23.29
2019-05-14T11:41:10.318Z,23.25
2019-05-14T11:42:10.376Z,23.23
2019-05-14T11:43:10.489Z,23.25
2019-05-14T11:44:10.453Z,23.25
2019-05-14T11:45:10.472Z,23.21
2019-05-14T11:46:10.490Z,23.26
2019-05-14T11:47:10.526Z,23.25
2019-05-14T11:48:10.560Z,23.22
2019-05-14T11:50:10.619Z,23.32
2019-05-14T11:51:10.662Z,23.29
2019-05-14T11:52:11.865Z,23.26
2019-05-14T11:53:10.732Z,23.25
2019-05-14T11:54:10.801Z,23.35
2019-05-14T11:55:10.785Z,23.26
2019-05-14T11:56:10.824Z,23.35
2019-05-14T11:57:11.840Z,23.32
2019-05-14T11:58:10.904Z,23.35
2019-05-14T11:59:10.931Z,23.22
2019-05-14T12:00:10.983Z,23.31
2019-05-14T12:01:11.022Z,23.29
2019-05-14T12:02:11.085Z,23.31
2019-05-14T12:03:11.059Z,23.23
2019-05-14T12:04:11.113Z,23.35
2019-05-14T12:05:11.135Z,23.38
2019-05-14T12:06:11.174Z,23.29
2019-05-14T12:07:11.208Z,23.37
2019-05-14T12:08:11.235Z,23.26
2019-05-14T12:09:12.099Z,23.37
2019-05-14T12:10:11.320Z,23.25
2019-05-14T12:11:11.343Z,23.37
2019-05-14T12:12:12.647Z,23.39
2019-05-14T12:13:11.409Z,23.44
2019-05-14T12:14:11.460Z,23.39
2019-05-14T12:15:11.493Z,23.37
2019-05-14T12:16:11.524Z,23.41
2019-05-14T12:17:11.558Z,23.44
2019-05-14T12:18:11.599Z,23.47
2019-05-14T12:19:12.209Z,23.45
2019-05-14T12:20:11.675Z,23.35
2019-05-14T12:21:11.791Z,23.35
2019-05-14T12:22:12.425Z,23.39
2019-05-14T12:24:13.564Z,23.39
2019-05-14T12:25:11.842Z,23.44
2019-05-14T12:26:11.870Z,23.44
2019-05-14T12:27:11.897Z,23.44
2019-05-14T12:28:13.625Z,23.44
2019-05-14T12:29:11.978Z,23.42
2019-05-14T12:31:12.227Z,23.49
2019-05-14T12:32:13.149Z,23.44
2019-05-14T12:33:12.100Z,23.44
2019-05-14T12:34:12.133Z,23.42
2019-05-14T12:35:12.169Z,23.45
2019-05-14T12:36:12.213Z,23.47
2019-05-14T12:37:12.235Z,23.42
2019-05-14T12:38:12.265Z,23.44
2019-05-14T12:39:12.307Z,23.47
2019-05-14T12:40:12.392Z,23.54
2019-05-14T12:41:12.374Z,23.49
2019-05-14T12:42:12.404Z,23.56
2019-05-14T12:43:12.455Z,23.52
2019-05-14T12:44:12.477Z,23.56
2019-05-14T12:45:12.625Z,23.60
2019-05-14T12:46:12.546Z,23.57
2019-05-14T12:47:12.619Z,23.50
2019-05-14T12:48:12.617Z,23.56
2019-05-14T12:49:13.004Z,23.53
2019-05-14T12:50:12.787Z,23.53
2019-05-14T12:51:12.739Z,23.60
2019-05-14T12:52:22.271Z,23.52
2019-05-14T12:53:12.789Z,23.64
2019-05-14T12:54:12.827Z,23.52
2019-05-14T12:55:12.870Z,23.53
2019-05-14T12:56:12.900Z,23.60
2019-05-14T12:57:12.927Z,23.59
2019-05-14T12:58:13.160Z,23.67
2019-05-14T12:59:12.994Z,23.57
2019-05-14T13:01:13.077Z,23.77
2019-05-14T13:02:13.105Z,23.77
2019-05-14T13:05:13.216Z,23.89
2019-05-14T13:06:13.261Z,23.93
2019-05-14T13:07:13.291Z,24.02
2019-05-14T13:08:13.321Z,24.18
2019-05-14T13:09:13.350Z,24.14
2019-05-14T13:11:13.421Z,24.26
2019-05-14T13:13:13.495Z,24.42
2019-05-14T13:14:13.540Z,24.48
2019-05-14T13:15:13.575Z,24.39
2019-05-14T13:16:13.620Z,24.41
2019-05-14T13:17:13.651Z,24.48
2019-05-14T13:19:13.772Z,24.67
2019-05-14T13:20:14.186Z,24.83
2019-05-14T13:21:13.817Z,24.84
2019-05-14T13:22:17.932Z,24.86
2019-05-14T13:23:13.872Z,24.93
2019-05-14T13:24:13.925Z,25.05
2019-05-14T13:25:13.946Z,25.09
2019-05-14T13:26:13.997Z,25.19
2019-05-14T13:27:14.017Z,25.20
2019-05-14T13:28:14.064Z,25.31
2019-05-14T13:29:14.092Z,25.45
2019-05-14T13:30:14.128Z,25.39
2019-05-14T13:31:14.188Z,25.56
2019-05-14T13:32:14.220Z,25.54
2019-05-14T13:33:14.269Z,25.67
2019-05-14T13:34:14.292Z,25.67
2019-05-14T13:36:14.407Z,25.69
2019-05-14T13:38:14.765Z,25.78
2019-05-14T13:39:14.497Z,25.91
2019-05-14T13:40:14.538Z,25.93